sensor_id;sensor_type;location;lat;lon;timestamp;P1;durP1;ratioP1;P2;durP2;ratioP2
9938;SDS011;5008;50.656;7.188;2022-08-11T00:01:43;3.38;;;2.70;;
9938;SDS011;5008;50.656;7.188;2022-08-11T00:04:11;2.97;;;2.75;;
9938;SDS011;5008;50.656;7.188;2022-08-11T00:06:40;2.83;;;2.63;;
9938;SDS011;5008;50.656;7.188;2022-08-11T00:09:10;2.50;;;2.40;;
9938;SDS011;5008;50.656;7.188;2022-08-11T00:11:43;2.92;;;2.63;;
9938;SDS011;5008;50.656;7.188;2022-08-11T00:14:13;3.38;;;2.60;;
9938;SDS011;5008;50.656;7.188;2022-08-11T00:16:42;2.90;;;2.70;;
9938;SDS011;5008;50.656;7.188;2022-08-11T00:19:19;3.25;;;2.95;;
9938;SDS011;5008;50.656;7.188;2022-08-11T00:21:51;4.18;;;3.08;;
9938;SDS011;5008;50.656;7.188;2022-08-11T00:24:19;2.83;;;2.50;;
9938;SDS011;5008;50.656;7.188;2022-08-11T00:26:49;3.00;;;2.70;;
9938;SDS011;5008;50.656;7.188;2022-08-11T00:29:17;2.88;;;2.67;;
9938;SDS011;5008;50.656;7.188;2022-08-11T00:31:45;2.55;;;2.33;;
9938;SDS011;5008;50.656;7.188;2022-08-11T00:34:14;3.15;;;2.85;;
9938;SDS011;5008;50.656;7.188;2022-08-11T00:36:46;4.00;;;2.63;;
9938;SDS011;5008;50.656;7.188;2022-08-11T00:39:15;2.70;;;2.50;;
9938;SDS011;5008;50.656;7.188;2022-08-11T00:41:46;4.38;;;3.15;;
9938;SDS011;5008;50.656;7.188;2022-08-11T00:44:28;3.00;;;2.67;;
9938;SDS011;5008;50.656;7.188;2022-08-11T00:47:09;3.00;;;2.80;;
9938;SDS011;5008;50.656;7.188;2022-08-11T00:49:46;3.10;;;2.90;;
9938;SDS011;5008;50.656;7.188;2022-08-11T00:52:35;4.55;;;3.15;;
9938;SDS011;5008;50.656;7.188;2022-08-11T00:58:36;3.10;;;2.90;;
9938;SDS011;5008;50.656;7.188;2022-08-11T01:01:32;2.53;;;2.40;;
9938;SDS011;5008;50.656;7.188;2022-08-11T01:10:33;3.03;;;2.80;;
9938;SDS011;5008;50.656;7.188;2022-08-11T01:13:18;3.13;;;2.85;;
9938;SDS011;5008;50.656;7.188;2022-08-11T01:16:12;2.88;;;2.67;;
9938;SDS011;5008;50.656;7.188;2022-08-11T01:19:24;3.08;;;2.88;;
9938;SDS011;5008;50.656;7.188;2022-08-11T01:22:20;3.30;;;3.00;;
9938;SDS011;5008;50.656;7.188;2022-08-11T01:28:23;3.05;;;2.85;;
9938;SDS011;5008;50.656;7.188;2022-08-11T01:31:23;3.00;;;2.80;;
9938;SDS011;5008;50.656;7.188;2022-08-11T01:37:29;2.83;;;2.63;;
9938;SDS011;5008;50.656;7.188;2022-08-11T01:40:37;3.38;;;2.97;;
9938;SDS011;5008;50.656;7.188;2022-08-11T01:43:34;3.10;;;2.80;;
9938;SDS011;5008;50.656;7.188;2022-08-11T01:47:01;4.95;;;3.22;;
9938;SDS011;5008;50.656;7.188;2022-08-11T01:50:02;2.90;;;2.60;;
9938;SDS011;5008;50.656;7.188;2022-08-11T01:52:41;3.78;;;3.35;;
9938;SDS011;5008;50.656;7.188;2022-08-11T01:55:27;3.17;;;2.90;;
9938;SDS011;5008;50.656;7.188;2022-08-11T01:58:04;3.25;;;2.65;;
9938;SDS011;5008;50.656;7.188;2022-08-11T02:00:38;3.40;;;3.20;;
9938;SDS011;5008;50.656;7.188;2022-08-11T02:03:17;3.22;;;3.03;;
9938;SDS011;5008;50.656;7.188;2022-08-11T02:05:51;3.42;;;2.90;;
9938;SDS011;5008;50.656;7.188;2022-08-11T02:08:40;3.15;;;2.85;;
9938;SDS011;5008;50.656;7.188;2022-08-11T02:11:18;3.00;;;2.80;;
9938;SDS011;5008;50.656;7.188;2022-08-11T02:13:56;3.35;;;3.05;;
9938;SDS011;5008;50.656;7.188;2022-08-11T02:16:36;3.88;;;2.80;;
9938;SDS011;5008;50.656;7.188;2022-08-11T02:19:17;2.90;;;2.70;;
9938;SDS011;5008;50.656;7.188;2022-08-11T02:22:08;3.67;;;3.38;;
9938;SDS011;5008;50.656;7.188;2022-08-11T02:25:03;3.00;;;2.80;;
9938;SDS011;5008;50.656;7.188;2022-08-11T02:27:37;3.00;;;2.80;;
9938;SDS011;5008;50.656;7.188;2022-08-11T02:30:09;4.40;;;3.33;;
9938;SDS011;5008;50.656;7.188;2022-08-11T02:32:40;3.47;;;3.17;;
9938;SDS011;5008;50.656;7.188;2022-08-11T02:35:33;3.40;;;3.00;;
9938;SDS011;5008;50.656;7.188;2022-08-11T02:38:10;3.40;;;3.10;;
9938;SDS011;5008;50.656;7.188;2022-08-11T02:40:46;3.25;;;2.97;;
9938;SDS011;5008;50.656;7.188;2022-08-11T02:43:23;3.38;;;3.08;;
9938;SDS011;5008;50.656;7.188;2022-08-11T02:45:59;3.33;;;3.00;;
9938;SDS011;5008;50.656;7.188;2022-08-11T02:48:40;3.28;;;3.08;;
9938;SDS011;5008;50.656;7.188;2022-08-11T02:51:43;3.35;;;3.05;;
9938;SDS011;5008;50.656;7.188;2022-08-11T02:54:26;3.22;;;3.00;;
9938;SDS011;5008;50.656;7.188;2022-08-11T02:57:03;3.88;;;3.47;;
9938;SDS011;5008;50.656;7.188;2022-08-11T02:59:40;3.22;;;3.03;;
9938;SDS011;5008;50.656;7.188;2022-08-11T03:02:18;3.88;;;3.30;;
9938;SDS011;5008;50.656;7.188;2022-08-11T03:04:58;3.75;;;3.45;;
9938;SDS011;5008;50.656;7.188;2022-08-11T03:07:46;3.85;;;3.47;;
9938;SDS011;5008;50.656;7.188;2022-08-11T03:10:22;4.20;;;3.35;;
9938;SDS011;5008;50.656;7.188;2022-08-11T03:12:56;3.33;;;3.13;;
9938;SDS011;5008;50.656;7.188;2022-08-11T03:15:47;3.78;;;3.10;;
9938;SDS011;5008;50.656;7.188;2022-08-11T03:18:53;4.10;;;3.17;;
9938;SDS011;5008;50.656;7.188;2022-08-11T03:21:31;3.20;;;2.90;;
9938;SDS011;5008;50.656;7.188;2022-08-11T03:24:05;3.70;;;3.40;;
9938;SDS011;5008;50.656;7.188;2022-08-11T03:26:42;3.90;;;3.60;;
9938;SDS011;5008;50.656;7.188;2022-08-11T03:29:27;5.18;;;3.38;;
9938;SDS011;5008;50.656;7.188;2022-08-11T03:32:02;3.33;;;3.13;;
9938;SDS011;5008;50.656;7.188;2022-08-11T03:34:34;3.83;;;3.40;;
9938;SDS011;5008;50.656;7.188;2022-08-11T03:40:15;4.20;;;3.90;;
9938;SDS011;5008;50.656;7.188;2022-08-11T03:43:17;3.95;;;3.47;;
9938;SDS011;5008;50.656;7.188;2022-08-11T03:45:56;3.70;;;3.40;;
9938;SDS011;5008;50.656;7.188;2022-08-11T03:48:36;3.97;;;3.60;;
9938;SDS011;5008;50.656;7.188;2022-08-11T03:51:12;4.95;;;4.05;;
9938;SDS011;5008;50.656;7.188;2022-08-11T03:53:48;4.22;;;3.85;;
9938;SDS011;5008;50.656;7.188;2022-08-11T03:56:56;4.13;;;3.50;;
9938;SDS011;5008;50.656;7.188;2022-08-11T04:00:03;3.35;;;3.15;;
9938;SDS011;5008;50.656;7.188;2022-08-11T04:02:59;4.13;;;3.83;;
9938;SDS011;5008;50.656;7.188;2022-08-11T04:06:20;5.80;;;3.78;;
9938;SDS011;5008;50.656;7.188;2022-08-11T04:12:17;4.10;;;3.80;;
9938;SDS011;5008;50.656;7.188;2022-08-11T04:15:07;4.30;;;3.90;;
9938;SDS011;5008;50.656;7.188;2022-08-11T04:18:15;4.60;;;4.05;;
9938;SDS011;5008;50.656;7.188;2022-08-11T04:21:01;4.10;;;3.80;;
9938;SDS011;5008;50.656;7.188;2022-08-11T04:23:41;4.15;;;3.85;;
9938;SDS011;5008;50.656;7.188;2022-08-11T04:29:24;6.38;;;3.67;;
9938;SDS011;5008;50.656;7.188;2022-08-11T04:32:08;3.72;;;3.50;;
9938;SDS011;5008;50.656;7.188;2022-08-11T04:41:19;5.10;;;3.90;;
9938;SDS011;5008;50.656;7.188;2022-08-11T04:47:06;4.15;;;3.83;;
9938;SDS011;5008;50.656;7.188;2022-08-11T04:50:14;4.30;;;3.90;;
9938;SDS011;5008;50.656;7.188;2022-08-11T04:53:21;4.38;;;3.70;;
9938;SDS011;5008;50.656;7.188;2022-08-11T04:56:17;4.05;;;3.75;;
9938;SDS011;5008;50.656;7.188;2022-08-11T04:59:26;7.18;;;4.07;;
9938;SDS011;5008;50.656;7.188;2022-08-11T05:05:27;7.13;;;4.28;;
9938;SDS011;5008;50.656;7.188;2022-08-11T05:11:26;4.75;;;3.83;;
9938;SDS011;5008;50.656;7.188;2022-08-11T05:14:23;4.72;;;4.25;;
9938;SDS011;5008;50.656;7.188;2022-08-11T05:17:15;5.13;;;4.65;;
9938;SDS011;5008;50.656;7.188;2022-08-11T05:20:10;4.15;;;3.85;;
9938;SDS011;5008;50.656;7.188;2022-08-11T05:22:55;3.95;;;3.65;;
9938;SDS011;5008;50.656;7.188;2022-08-11T05:25:51;5.30;;;4.07;;
9938;SDS011;5008;50.656;7.188;2022-08-11T05:28:47;3.80;;;3.53;;
9938;SDS011;5008;50.656;7.188;2022-08-11T05:31:37;3.95;;;3.63;;
9938;SDS011;5008;50.656;7.188;2022-08-11T05:34:24;4.88;;;4.03;;
9938;SDS011;5008;50.656;7.188;2022-08-11T05:37:12;5.10;;;4.20;;
9938;SDS011;5008;50.656;7.188;2022-08-11T05:39:44;5.95;;;4.45;;
9938;SDS011;5008;50.656;7.188;2022-08-11T05:42:32;4.80;;;4.40;;
9938;SDS011;5008;50.656;7.188;2022-08-11T05:45:21;4.50;;;4.10;;
9938;SDS011;5008;50.656;7.188;2022-08-11T05:48:06;4.72;;;3.95;;
9938;SDS011;5008;50.656;7.188;2022-08-11T05:50:54;4.15;;;3.85;;
9938;SDS011;5008;50.656;7.188;2022-08-11T05:53:47;4.55;;;4.13;;
9938;SDS011;5008;50.656;7.188;2022-08-11T05:56:42;4.30;;;3.85;;
9938;SDS011;5008;50.656;7.188;2022-08-11T05:59:15;4.68;;;3.70;;
9938;SDS011;5008;50.656;7.188;2022-08-11T06:01:42;5.22;;;4.50;;
9938;SDS011;5008;50.656;7.188;2022-08-11T06:04:14;4.90;;;4.43;;
9938;SDS011;5008;50.656;7.188;2022-08-11T06:06:49;4.05;;;3.72;;
9938;SDS011;5008;50.656;7.188;2022-08-11T06:09:27;4.80;;;4.30;;
9938;SDS011;5008;50.656;7.188;2022-08-11T06:11:57;5.35;;;4.43;;
9938;SDS011;5008;50.656;7.188;2022-08-11T06:14:28;4.20;;;3.90;;
9938;SDS011;5008;50.656;7.188;2022-08-11T06:16:57;4.07;;;3.70;;
9938;SDS011;5008;50.656;7.188;2022-08-11T06:19:30;4.38;;;4.00;;
9938;SDS011;5008;50.656;7.188;2022-08-11T06:22:00;4.95;;;3.90;;
9938;SDS011;5008;50.656;7.188;2022-08-11T06:24:29;4.38;;;4.00;;
9938;SDS011;5008;50.656;7.188;2022-08-11T06:26:57;4.40;;;4.00;;
9938;SDS011;5008;50.656;7.188;2022-08-11T06:29:25;5.70;;;3.70;;
9938;SDS011;5008;50.656;7.188;2022-08-11T06:31:57;5.88;;;3.92;;
9938;SDS011;5008;50.656;7.188;2022-08-11T06:34:37;4.82;;;4.43;;
9938;SDS011;5008;50.656;7.188;2022-08-11T06:37:17;4.68;;;4.28;;
9938;SDS011;5008;50.656;7.188;2022-08-11T06:39:49;4.50;;;4.10;;
9938;SDS011;5008;50.656;7.188;2022-08-11T06:42:31;6.25;;;3.55;;
9938;SDS011;5008;50.656;7.188;2022-08-11T06:45:06;8.27;;;4.03;;
9938;SDS011;5008;50.656;7.188;2022-08-11T06:47:41;4.13;;;3.67;;
9938;SDS011;5008;50.656;7.188;2022-08-11T06:50:13;4.68;;;3.92;;
9938;SDS011;5008;50.656;7.188;2022-08-11T06:53:00;4.50;;;4.10;;
9938;SDS011;5008;50.656;7.188;2022-08-11T06:55:29;4.30;;;3.90;;
9938;SDS011;5008;50.656;7.188;2022-08-11T06:58:18;5.47;;;3.70;;
9938;SDS011;5008;50.656;7.188;2022-08-11T07:01:06;8.13;;;3.80;;
9938;SDS011;5008;50.656;7.188;2022-08-11T07:03:38;4.10;;;3.70;;
9938;SDS011;5008;50.656;7.188;2022-08-11T07:06:14;4.45;;;3.63;;
9938;SDS011;5008;50.656;7.188;2022-08-11T07:09:06;8.52;;;4.70;;
9938;SDS011;5008;50.656;7.188;2022-08-11T07:12:13;3.97;;;3.58;;
9938;SDS011;5008;50.656;7.188;2022-08-11T07:15:15;4.05;;;3.58;;
9938;SDS011;5008;50.656;7.188;2022-08-11T07:18:02;4.40;;;3.55;;
9938;SDS011;5008;50.656;7.188;2022-08-11T07:20:49;3.78;;;3.33;;
9938;SDS011;5008;50.656;7.188;2022-08-11T07:23:36;5.13;;;3.60;;
9938;SDS011;5008;50.656;7.188;2022-08-11T07:26:21;3.88;;;3.40;;
9938;SDS011;5008;50.656;7.188;2022-08-11T07:29:08;3.70;;;3.45;;
9938;SDS011;5008;50.656;7.188;2022-08-11T07:31:37;4.47;;;3.33;;
9938;SDS011;5008;50.656;7.188;2022-08-11T07:34:16;4.50;;;3.03;;
9938;SDS011;5008;50.656;7.188;2022-08-11T07:36:48;3.70;;;3.40;;
9938;SDS011;5008;50.656;7.188;2022-08-11T07:39:18;4.68;;;3.42;;
9938;SDS011;5008;50.656;7.188;2022-08-11T07:41:47;3.40;;;3.10;;
9938;SDS011;5008;50.656;7.188;2022-08-11T07:44:15;4.93;;;3.67;;
9938;SDS011;5008;50.656;7.188;2022-08-11T07:46:47;4.32;;;3.63;;
9938;SDS011;5008;50.656;7.188;2022-08-11T07:49:36;5.13;;;2.80;;
9938;SDS011;5008;50.656;7.188;2022-08-11T07:52:22;3.53;;;3.22;;
9938;SDS011;5008;50.656;7.188;2022-08-11T07:54:58;3.83;;;3.33;;
9938;SDS011;5008;50.656;7.188;2022-08-11T07:57:25;4.13;;;3.08;;
9938;SDS011;5008;50.656;7.188;2022-08-11T08:00:11;3.20;;;3.00;;
9938;SDS011;5008;50.656;7.188;2022-08-11T08:02:56;3.03;;;2.83;;
9938;SDS011;5008;50.656;7.188;2022-08-11T08:05:43;2.88;;;2.67;;
9938;SDS011;5008;50.656;7.188;2022-08-11T08:08:29;3.15;;;2.95;;
9938;SDS011;5008;50.656;7.188;2022-08-11T08:11:14;3.72;;;3.40;;
9938;SDS011;5008;50.656;7.188;2022-08-11T08:14:00;3.05;;;2.75;;
9938;SDS011;5008;50.656;7.188;2022-08-11T08:16:44;3.42;;;3.13;;
9938;SDS011;5008;50.656;7.188;2022-08-11T08:19:29;3.08;;;2.88;;
9938;SDS011;5008;50.656;7.188;2022-08-11T08:21:58;3.00;;;2.80;;
9938;SDS011;5008;50.656;7.188;2022-08-11T08:24:26;3.35;;;3.05;;
9938;SDS011;5008;50.656;7.188;2022-08-11T08:26:55;4.20;;;3.28;;
9938;SDS011;5008;50.656;7.188;2022-08-11T08:29:26;4.25;;;2.85;;
9938;SDS011;5008;50.656;7.188;2022-08-11T08:32:13;2.83;;;2.63;;
9938;SDS011;5008;50.656;7.188;2022-08-11T08:34:41;2.63;;;2.42;;
9938;SDS011;5008;50.656;7.188;2022-08-11T08:37:10;3.30;;;2.83;;
9938;SDS011;5008;50.656;7.188;2022-08-11T08:39:38;3.13;;;2.92;;
9938;SDS011;5008;50.656;7.188;2022-08-11T08:42:06;3.67;;;3.25;;
9938;SDS011;5008;50.656;7.188;2022-08-11T08:44:38;3.13;;;2.83;;
9938;SDS011;5008;50.656;7.188;2022-08-11T08:47:09;3.60;;;2.75;;
9938;SDS011;5008;50.656;7.188;2022-08-11T08:49:48;5.65;;;3.35;;
9938;SDS011;5008;50.656;7.188;2022-08-11T08:52:20;2.95;;;2.75;;
9938;SDS011;5008;50.656;7.188;2022-08-11T08:54:50;3.08;;;2.85;;
9938;SDS011;5008;50.656;7.188;2022-08-11T08:57:21;3.50;;;2.67;;
9938;SDS011;5008;50.656;7.188;2022-08-11T08:59:49;2.60;;;2.40;;
9938;SDS011;5008;50.656;7.188;2022-08-11T09:02:16;2.80;;;2.60;;
9938;SDS011;5008;50.656;7.188;2022-08-11T09:04:45;4.95;;;2.75;;
9938;SDS011;5008;50.656;7.188;2022-08-11T09:07:14;2.58;;;2.38;;
9938;SDS011;5008;50.656;7.188;2022-08-11T09:09:46;2.80;;;2.60;;
9938;SDS011;5008;50.656;7.188;2022-08-11T09:12:14;4.88;;;2.95;;
9938;SDS011;5008;50.656;7.188;2022-08-11T09:14:45;3.08;;;2.75;;
9938;SDS011;5008;50.656;7.188;2022-08-11T09:17:28;3.53;;;3.22;;
9938;SDS011;5008;50.656;7.188;2022-08-11T09:19:58;3.10;;;2.90;;
9938;SDS011;5008;50.656;7.188;2022-08-11T09:22:26;2.90;;;2.70;;
9938;SDS011;5008;50.656;7.188;2022-08-11T09:25:14;3.28;;;2.75;;
9938;SDS011;5008;50.656;7.188;2022-08-11T09:27:59;2.85;;;2.65;;
9938;SDS011;5008;50.656;7.188;2022-08-11T09:30:29;2.45;;;2.25;;
9938;SDS011;5008;50.656;7.188;2022-08-11T09:32:57;2.53;;;2.33;;
9938;SDS011;5008;50.656;7.188;2022-08-11T09:35:27;2.78;;;2.53;;
9938;SDS011;5008;50.656;7.188;2022-08-11T09:37:55;2.65;;;2.45;;
9938;SDS011;5008;50.656;7.188;2022-08-11T09:40:44;2.45;;;2.25;;
9938;SDS011;5008;50.656;7.188;2022-08-11T09:43:14;2.88;;;2.60;;
9938;SDS011;5008;50.656;7.188;2022-08-11T09:46:00;2.78;;;2.58;;
9938;SDS011;5008;50.656;7.188;2022-08-11T09:48:29;3.05;;;2.72;;
9938;SDS011;5008;50.656;7.188;2022-08-11T09:51:00;3.08;;;2.85;;
9938;SDS011;5008;50.656;7.188;2022-08-11T09:53:29;2.92;;;2.72;;
9938;SDS011;5008;50.656;7.188;2022-08-11T09:55:59;2.63;;;2.42;;
9938;SDS011;5008;50.656;7.188;2022-08-11T09:58:48;2.78;;;2.58;;
9938;SDS011;5008;50.656;7.188;2022-08-11T10:01:15;2.40;;;2.20;;
9938;SDS011;5008;50.656;7.188;2022-08-11T10:03:52;3.35;;;2.50;;
9938;SDS011;5008;50.656;7.188;2022-08-11T10:06:22;2.38;;;2.28;;
9938;SDS011;5008;50.656;7.188;2022-08-11T10:09:08;2.85;;;2.35;;
9938;SDS011;5008;50.656;7.188;2022-08-11T10:11:36;2.75;;;2.38;;
9938;SDS011;5008;50.656;7.188;2022-08-11T10:14:05;3.13;;;2.55;;
9938;SDS011;5008;50.656;7.188;2022-08-11T10:16:52;2.70;;;2.50;;
9938;SDS011;5008;50.656;7.188;2022-08-11T10:19:19;2.67;;;2.47;;
9938;SDS011;5008;50.656;7.188;2022-08-11T10:21:49;3.00;;;2.70;;
9938;SDS011;5008;50.656;7.188;2022-08-11T10:24:38;3.97;;;2.70;;
9938;SDS011;5008;50.656;7.188;2022-08-11T10:27:28;3.22;;;2.95;;
9938;SDS011;5008;50.656;7.188;2022-08-11T10:29:56;2.80;;;2.60;;
9938;SDS011;5008;50.656;7.188;2022-08-11T10:32:42;2.90;;;2.60;;
9938;SDS011;5008;50.656;7.188;2022-08-11T10:35:27;2.80;;;2.60;;
9938;SDS011;5008;50.656;7.188;2022-08-11T10:37:55;2.92;;;2.72;;
9938;SDS011;5008;50.656;7.188;2022-08-11T10:40:23;3.10;;;2.83;;
9938;SDS011;5008;50.656;7.188;2022-08-11T10:42:53;2.80;;;2.58;;
9938;SDS011;5008;50.656;7.188;2022-08-11T10:45:27;2.85;;;2.55;;
9938;SDS011;5008;50.656;7.188;2022-08-11T10:48:09;2.90;;;2.70;;
9938;SDS011;5008;50.656;7.188;2022-08-11T10:50:37;2.55;;;2.38;;
9938;SDS011;5008;50.656;7.188;2022-08-11T10:53:21;2.95;;;2.40;;
9938;SDS011;5008;50.656;7.188;2022-08-11T10:56:08;2.60;;;2.40;;
9938;SDS011;5008;50.656;7.188;2022-08-11T10:58:54;4.47;;;2.70;;
9938;SDS011;5008;50.656;7.188;2022-08-11T11:01:23;2.60;;;2.40;;
9938;SDS011;5008;50.656;7.188;2022-08-11T11:03:54;4.28;;;2.58;;
9938;SDS011;5008;50.656;7.188;2022-08-11T11:06:26;2.78;;;2.53;;
9938;SDS011;5008;50.656;7.188;2022-08-11T11:09:00;3.58;;;2.63;;
9938;SDS011;5008;50.656;7.188;2022-08-11T11:11:30;3.50;;;2.60;;
9938;SDS011;5008;50.656;7.188;2022-08-11T11:14:20;3.60;;;2.65;;
9938;SDS011;5008;50.656;7.188;2022-08-11T11:17:15;2.97;;;2.70;;
9938;SDS011;5008;50.656;7.188;2022-08-11T11:20:06;4.63;;;2.55;;
9938;SDS011;5008;50.656;7.188;2022-08-11T11:22:34;3.13;;;2.83;;
9938;SDS011;5008;50.656;7.188;2022-08-11T11:25:07;2.67;;;2.47;;
9938;SDS011;5008;50.656;7.188;2022-08-11T11:30:43;3.88;;;2.83;;
9938;SDS011;5008;50.656;7.188;2022-08-11T11:33:22;4.72;;;2.90;;
9938;SDS011;5008;50.656;7.188;2022-08-11T11:36:06;3.38;;;2.50;;
9938;SDS011;5008;50.656;7.188;2022-08-11T11:38:40;3.25;;;2.97;;
9938;SDS011;5008;50.656;7.188;2022-08-11T11:41:07;4.22;;;2.97;;
9938;SDS011;5008;50.656;7.188;2022-08-11T11:43:50;2.50;;;2.40;;
9938;SDS011;5008;50.656;7.188;2022-08-11T11:46:20;3.58;;;2.65;;
9938;SDS011;5008;50.656;7.188;2022-08-11T11:48:49;4.50;;;2.90;;
9938;SDS011;5008;50.656;7.188;2022-08-11T11:51:17;3.13;;;2.83;;
9938;SDS011;5008;50.656;7.188;2022-08-11T11:53:44;3.08;;;2.75;;
9938;SDS011;5008;50.656;7.188;2022-08-11T11:56:13;2.58;;;2.38;;
9938;SDS011;5008;50.656;7.188;2022-08-11T11:58:40;2.85;;;2.65;;
9938;SDS011;5008;50.656;7.188;2022-08-11T12:01:32;2.92;;;2.65;;
9938;SDS011;5008;50.656;7.188;2022-08-11T12:04:02;3.05;;;2.85;;
9938;SDS011;5008;50.656;7.188;2022-08-11T12:06:30;2.67;;;2.47;;
9938;SDS011;5008;50.656;7.188;2022-08-11T12:08:58;2.83;;;2.60;;
9938;SDS011;5008;50.656;7.188;2022-08-11T12:11:26;3.38;;;2.25;;
9938;SDS011;5008;50.656;7.188;2022-08-11T12:14:11;4.43;;;2.53;;
9938;SDS011;5008;50.656;7.188;2022-08-11T12:16:45;2.95;;;2.65;;
9938;SDS011;5008;50.656;7.188;2022-08-11T12:19:14;2.47;;;2.38;;
9938;SDS011;5008;50.656;7.188;2022-08-11T12:21:45;2.53;;;2.33;;
9938;SDS011;5008;50.656;7.188;2022-08-11T12:24:31;3.45;;;2.88;;
9938;SDS011;5008;50.656;7.188;2022-08-11T12:27:17;2.70;;;2.50;;
9938;SDS011;5008;50.656;7.188;2022-08-11T12:29:48;3.15;;;2.53;;
9938;SDS011;5008;50.656;7.188;2022-08-11T12:32:22;4.32;;;2.70;;
9938;SDS011;5008;50.656;7.188;2022-08-11T12:34:52;2.65;;;2.50;;
9938;SDS011;5008;50.656;7.188;2022-08-11T12:40:13;2.47;;;2.33;;
9938;SDS011;5008;50.656;7.188;2022-08-11T12:43:01;2.92;;;2.72;;
9938;SDS011;5008;50.656;7.188;2022-08-11T12:45:47;2.83;;;2.42;;
9938;SDS011;5008;50.656;7.188;2022-08-11T12:48:25;2.47;;;2.22;;
9938;SDS011;5008;50.656;7.188;2022-08-11T12:51:15;2.78;;;2.60;;
9938;SDS011;5008;50.656;7.188;2022-08-11T12:54:05;2.25;;;2.15;;
9938;SDS011;5008;50.656;7.188;2022-08-11T12:56:37;2.88;;;2.20;;
9938;SDS011;5008;50.656;7.188;2022-08-11T12:59:25;2.60;;;2.40;;
9938;SDS011;5008;50.656;7.188;2022-08-11T13:02:09;2.50;;;2.30;;
9938;SDS011;5008;50.656;7.188;2022-08-11T13:05:01;4.70;;;2.53;;
9938;SDS011;5008;50.656;7.188;2022-08-11T13:07:29;4.43;;;2.70;;
9938;SDS011;5008;50.656;7.188;2022-08-11T13:09:57;3.33;;;2.92;;
9938;SDS011;5008;50.656;7.188;2022-08-11T13:12:28;2.85;;;2.58;;
9938;SDS011;5008;50.656;7.188;2022-08-11T13:15:16;2.55;;;2.35;;
9938;SDS011;5008;50.656;7.188;2022-08-11T13:17:45;3.05;;;2.58;;
9938;SDS011;5008;50.656;7.188;2022-08-11T13:20:15;2.67;;;2.47;;
9938;SDS011;5008;50.656;7.188;2022-08-11T13:22:44;3.67;;;2.53;;
9938;SDS011;5008;50.656;7.188;2022-08-11T13:25:14;2.95;;;2.75;;
9938;SDS011;5008;50.656;7.188;2022-08-11T13:27:41;3.25;;;2.63;;
9938;SDS011;5008;50.656;7.188;2022-08-11T13:30:10;4.63;;;2.83;;
9938;SDS011;5008;50.656;7.188;2022-08-11T13:32:56;2.40;;;2.20;;
9938;SDS011;5008;50.656;7.188;2022-08-11T13:35:24;2.70;;;2.50;;
9938;SDS011;5008;50.656;7.188;2022-08-11T13:37:53;2.30;;;2.20;;
9938;SDS011;5008;50.656;7.188;2022-08-11T13:40:21;2.80;;;2.30;;
9938;SDS011;5008;50.656;7.188;2022-08-11T13:42:49;2.60;;;2.40;;
9938;SDS011;5008;50.656;7.188;2022-08-11T13:45:17;2.80;;;2.30;;
9938;SDS011;5008;50.656;7.188;2022-08-11T13:47:47;3.05;;;2.40;;
9938;SDS011;5008;50.656;7.188;2022-08-11T13:50:15;2.58;;;2.40;;
9938;SDS011;5008;50.656;7.188;2022-08-11T13:52:43;2.70;;;2.50;;
9938;SDS011;5008;50.656;7.188;2022-08-11T13:55:13;3.78;;;2.60;;
9938;SDS011;5008;50.656;7.188;2022-08-11T13:57:46;2.70;;;2.50;;
9938;SDS011;5008;50.656;7.188;2022-08-11T14:00:15;2.80;;;2.60;;
9938;SDS011;5008;50.656;7.188;2022-08-11T14:02:43;2.53;;;2.33;;
9938;SDS011;5008;50.656;7.188;2022-08-11T14:05:14;2.55;;;2.35;;
9938;SDS011;5008;50.656;7.188;2022-08-11T14:07:45;2.67;;;2.50;;
9938;SDS011;5008;50.656;7.188;2022-08-11T14:10:15;3.00;;;2.30;;
9938;SDS011;5008;50.656;7.188;2022-08-11T14:12:45;2.88;;;2.15;;
9938;SDS011;5008;50.656;7.188;2022-08-11T14:15:34;2.88;;;2.63;;
9938;SDS011;5008;50.656;7.188;2022-08-11T14:18:02;3.15;;;2.50;;
9938;SDS011;5008;50.656;7.188;2022-08-11T14:20:32;3.13;;;2.65;;
9938;SDS011;5008;50.656;7.188;2022-08-11T14:23:16;3.10;;;2.80;;
9938;SDS011;5008;50.656;7.188;2022-08-11T14:25:44;2.80;;;2.60;;
9938;SDS011;5008;50.656;7.188;2022-08-11T14:28:26;2.30;;;2.10;;
9938;SDS011;5008;50.656;7.188;2022-08-11T14:30:53;2.67;;;2.40;;
9938;SDS011;5008;50.656;7.188;2022-08-11T14:33:20;2.72;;;2.50;;
9938;SDS011;5008;50.656;7.188;2022-08-11T14:35:47;2.60;;;2.40;;
9938;SDS011;5008;50.656;7.188;2022-08-11T14:38:16;3.67;;;2.88;;
9938;SDS011;5008;50.656;7.188;2022-08-11T14:40:45;3.33;;;2.75;;
9938;SDS011;5008;50.656;7.188;2022-08-11T14:43:29;5.13;;;2.55;;
9938;SDS011;5008;50.656;7.188;2022-08-11T14:46:11;2.63;;;2.42;;
9938;SDS011;5008;50.656;7.188;2022-08-11T14:48:56;2.53;;;2.42;;
9938;SDS011;5008;50.656;7.188;2022-08-11T14:51:23;2.40;;;2.30;;
9938;SDS011;5008;50.656;7.188;2022-08-11T14:53:53;2.35;;;2.15;;
9938;SDS011;5008;50.656;7.188;2022-08-11T14:56:41;3.35;;;2.60;;
9938;SDS011;5008;50.656;7.188;2022-08-11T14:59:08;2.85;;;2.60;;
9938;SDS011;5008;50.656;7.188;2022-08-11T15:01:36;2.75;;;2.55;;
9938;SDS011;5008;50.656;7.188;2022-08-11T15:04:21;4.30;;;2.80;;
9938;SDS011;5008;50.656;7.188;2022-08-11T15:06:49;3.75;;;2.80;;
9938;SDS011;5008;50.656;7.188;2022-08-11T15:09:18;2.40;;;2.30;;
9938;SDS011;5008;50.656;7.188;2022-08-11T15:11:46;3.05;;;2.85;;
9938;SDS011;5008;50.656;7.188;2022-08-11T15:14:31;3.10;;;2.33;;
9938;SDS011;5008;50.656;7.188;2022-08-11T15:17:20;3.03;;;2.47;;
9938;SDS011;5008;50.656;7.188;2022-08-11T15:19:49;3.20;;;2.22;;
9938;SDS011;5008;50.656;7.188;2022-08-11T15:22:45;2.55;;;2.35;;
9938;SDS011;5008;50.656;7.188;2022-08-11T15:25:31;3.05;;;2.65;;
9938;SDS011;5008;50.656;7.188;2022-08-11T15:28:00;4.55;;;2.58;;
9938;SDS011;5008;50.656;7.188;2022-08-11T15:30:48;2.97;;;2.78;;
9938;SDS011;5008;50.656;7.188;2022-08-11T15:33:37;2.90;;;2.70;;
9938;SDS011;5008;50.656;7.188;2022-08-11T15:36:23;2.83;;;2.63;;
9938;SDS011;5008;50.656;7.188;2022-08-11T15:39:12;2.63;;;2.42;;
9938;SDS011;5008;50.656;7.188;2022-08-11T15:41:46;3.83;;;2.72;;
9938;SDS011;5008;50.656;7.188;2022-08-11T15:44:37;3.00;;;2.80;;
9938;SDS011;5008;50.656;7.188;2022-08-11T15:47:25;2.85;;;2.53;;
9938;SDS011;5008;50.656;7.188;2022-08-11T15:49:54;2.70;;;2.50;;
9938;SDS011;5008;50.656;7.188;2022-08-11T15:52:29;3.13;;;2.70;;
9938;SDS011;5008;50.656;7.188;2022-08-11T15:55:06;2.35;;;2.25;;
9938;SDS011;5008;50.656;7.188;2022-08-11T16:00:53;2.17;;;1.98;;
9938;SDS011;5008;50.656;7.188;2022-08-11T16:03:40;2.70;;;2.17;;
9938;SDS011;5008;50.656;7.188;2022-08-11T16:06:27;1.85;;;1.75;;
9938;SDS011;5008;50.656;7.188;2022-08-11T16:08:56;2.88;;;2.28;;
9938;SDS011;5008;50.656;7.188;2022-08-11T16:11:30;2.30;;;2.17;;
9938;SDS011;5008;50.656;7.188;2022-08-11T16:14:00;2.25;;;2.13;;
9938;SDS011;5008;50.656;7.188;2022-08-11T16:16:48;2.00;;;1.90;;
9938;SDS011;5008;50.656;7.188;2022-08-11T16:19:17;2.60;;;2.40;;
9938;SDS011;5008;50.656;7.188;2022-08-11T16:21:45;2.00;;;1.90;;
9938;SDS011;5008;50.656;7.188;2022-08-11T16:24:14;2.15;;;2.05;;
9938;SDS011;5008;50.656;7.188;2022-08-11T16:26:45;2.00;;;1.90;;
9938;SDS011;5008;50.656;7.188;2022-08-11T16:29:14;3.13;;;2.55;;
9938;SDS011;5008;50.656;7.188;2022-08-11T16:31:43;2.20;;;2.10;;
9938;SDS011;5008;50.656;7.188;2022-08-11T16:34:32;2.65;;;2.47;;
9938;SDS011;5008;50.656;7.188;2022-08-11T16:37:18;2.75;;;2.55;;
9938;SDS011;5008;50.656;7.188;2022-08-11T16:40:05;2.28;;;2.10;;
9938;SDS011;5008;50.656;7.188;2022-08-11T16:42:36;2.88;;;2.60;;
9938;SDS011;5008;50.656;7.188;2022-08-11T16:45:22;2.60;;;2.40;;
9938;SDS011;5008;50.656;7.188;2022-08-11T16:48:07;3.05;;;2.47;;
9938;SDS011;5008;50.656;7.188;2022-08-11T16:50:35;2.50;;;2.30;;
9938;SDS011;5008;50.656;7.188;2022-08-11T16:53:04;2.20;;;2.10;;
9938;SDS011;5008;50.656;7.188;2022-08-11T16:55:31;3.15;;;2.50;;
9938;SDS011;5008;50.656;7.188;2022-08-11T16:58:06;2.95;;;2.30;;
9938;SDS011;5008;50.656;7.188;2022-08-11T17:00:53;2.47;;;2.28;;
9938;SDS011;5008;50.656;7.188;2022-08-11T17:03:23;2.60;;;2.40;;
9938;SDS011;5008;50.656;7.188;2022-08-11T17:06:08;4.15;;;2.60;;
9938;SDS011;5008;50.656;7.188;2022-08-11T17:08:57;2.90;;;2.70;;
9938;SDS011;5008;50.656;7.188;2022-08-11T17:11:47;4.00;;;2.50;;
9938;SDS011;5008;50.656;7.188;2022-08-11T17:14:36;6.55;;;2.80;;
9938;SDS011;5008;50.656;7.188;2022-08-11T17:17:07;3.20;;;2.75;;